createdAt,value
2023-03-02T00:00:44.800Z,62502.33
2023-03-02T00:01:56.116Z,62497.56
2023-03-02T00:02:58.422Z,62499.07
2023-03-02T00:04:04.149Z,62493.23
2023-03-02T00:05:08.681Z,62493.23
2023-03-02T00:06:11.522Z,62491.46
2023-03-02T00:07:17.730Z,62471.24
2023-03-02T00:08:20.089Z,62481.29
2023-03-02T00:09:23.051Z,62485.49
2023-03-02T00:10:25.457Z,62491.33
2023-03-02T00:11:30.021Z,62484.82
2023-03-02T00:12:32.993Z,62482.77
2023-03-02T00:13:37.670Z,62476.39
2023-03-02T00:14:40.104Z,62476.67
2023-03-02T00:15:42.177Z,62477.35
2023-03-02T00:16:44.569Z,62469.88
2023-03-02T00:17:46.812Z,62479.93
2023-03-02T00:18:49.536Z,62477.35
2023-03-02T00:19:52.606Z,62484.55
2023-03-02T00:20:55.101Z,62472.60
2023-03-02T00:21:57.088Z,62478.44
2023-03-02T00:22:59.448Z,62476.67
2023-03-02T00:24:01.474Z,62473.14
2023-03-02T00:25:04.554Z,62473.95
2023-03-02T00:26:06.790Z,62461.05
2023-03-02T00:27:08.677Z,62467.98
2023-03-02T00:28:10.778Z,62465.82
2023-03-02T00:29:13.475Z,62472.32
2023-03-02T00:30:16.683Z,62455.63
2023-03-02T00:31:19.677Z,62473.00
2023-03-02T00:32:22.294Z,62472.87
2023-03-02T00:33:25.114Z,62468.79
2023-03-02T00:34:27.043Z,62478.15
2023-03-02T00:35:28.968Z,62469.20
2023-03-02T00:36:32.138Z,62472.87
2023-03-02T00:37:35.879Z,62473.41
2023-03-02T00:38:38.199Z,62466.09
2023-03-02T00:39:40.110Z,62474.50
2023-03-02T00:40:47.084Z,62467.16
2023-03-02T00:41:49.313Z,62472.73
2023-03-02T00:42:51.272Z,62472.73
2023-03-02T00:43:53.755Z,62468.66
2023-03-02T00:44:55.642Z,62469.08
2023-03-02T00:45:57.531Z,62464.99
2023-03-02T00:47:00.158Z,62462.56
2023-03-02T00:48:02.192Z,62469.47
2023-03-02T00:49:04.173Z,62466.50
2023-03-02T00:50:08.579Z,62471.78
2023-03-02T00:51:12.379Z,62462.82
2023-03-02T00:52:15.730Z,62467.04
2023-03-02T00:53:18.294Z,62462.00
2023-03-02T00:54:20.291Z,62462.14
2023-03-02T00:55:22.552Z,62461.05
2023-03-02T00:56:24.646Z,62463.24
2023-03-02T00:57:26.724Z,62461.20
2023-03-02T00:58:30.348Z,62457.79
2023-03-02T00:59:33.126Z,62459.30
2023-03-02T01:00:36.842Z,62467.98
2023-03-02T01:01:38.926Z,62466.09
2023-03-02T01:02:40.929Z,62461.05
2023-03-02T01:03:44.109Z,62465.14
2023-03-02T01:04:46.632Z,62461.05
2023-03-02T01:05:49.103Z,62462.56
2023-03-02T01:06:51.176Z,62466.36
2023-03-02T01:07:53.281Z,62465.82
2023-03-02T01:08:55.286Z,62471.24
2023-03-02T01:09:57.263Z,62462.82
2023-03-02T01:10:59.590Z,62466.89
2023-03-02T01:12:01.862Z,62454.95
2023-03-02T01:13:04.550Z,62457.14
2023-03-02T01:14:06.566Z,62459.84
2023-03-02T01:15:09.677Z,62461.32
2023-03-02T01:16:12.368Z,62454.95
2023-03-02T01:17:15.019Z,62459.30
2023-03-02T01:18:17.098Z,62433.52
2023-03-02T01:19:19.012Z,62439.89
2023-03-02T01:20:21.394Z,62448.43
2023-03-02T01:21:23.294Z,62444.78
2023-03-02T01:22:25.829Z,62449.53
2023-03-02T01:23:28.218Z,62443.69
2023-03-02T01:24:30.947Z,62450.06
2023-03-02T01:25:34.428Z,62444.37
2023-03-02T01:26:37.015Z,62448.31
2023-03-02T01:27:39.877Z,62444.23
2023-03-02T01:28:41.783Z,62445.59
2023-03-02T01:29:44.066Z,62434.20
2023-03-02T01:30:46.974Z,62446.80
2023-03-02T01:31:49.160Z,62435.01
2023-03-02T01:32:52.210Z,62432.84
2023-03-02T01:33:54.593Z,62434.47
2023-03-02T01:34:56.823Z,62432.97
2023-03-02T01:35:58.820Z,62437.05
2023-03-02T01:37:00.909Z,62432.16
2023-03-02T01:38:03.271Z,62425.24
2023-03-02T01:39:05.342Z,62427.01
2023-03-02T01:40:09.779Z,62433.52
2023-03-02T01:41:12.061Z,62429.17
2023-03-02T01:42:14.184Z,62431.34
2023-03-02T01:43:16.752Z,62433.52
2023-03-02T01:44:46.071Z,62425.24
2023-03-02T01:45:57.938Z,62426.87
2023-03-02T01:47:01.425Z,62435.81
2023-03-02T01:48:06.027Z,62423.88
2023-03-02T01:49:11.702Z,62429.17
2023-03-02T01:50:20.938Z,62423.75
2023-03-02T01:51:26.049Z,62419.81
2023-03-02T01:52:30.838Z,62426.74
2023-03-02T01:53:36.147Z,62425.24
2023-03-02T01:54:42.370Z,62426.33
2023-03-02T01:55:45.461Z,62428.49
2023-03-02T01:56:52.268Z,62431.75
2023-03-02T01:57:56.301Z,62422.66
2023-03-02T01:59:01.922Z,62424.82
2023-03-02T02:00:07.875Z,62429.32
2023-03-02T02:01:10.397Z,62427.81
2023-03-02T02:02:13.041Z,62422.25
2023-03-02T02:03:21.720Z,62422.93
2023-03-02T02:04:26.404Z,62427.81
2023-03-02T02:05:28.833Z,62425.24
2023-03-02T02:06:34.934Z,62425.65
2023-03-02T02:07:37.913Z,62424.16
2023-03-02T02:08:41.894Z,62428.23
2023-03-02T02:09:50.471Z,62422.54
2023-03-02T02:10:53.510Z,62427.81
2023-03-02T02:11:56.137Z,62411.55
2023-03-02T02:12:58.913Z,62409.65
2023-03-02T02:14:02.718Z,62416.56
2023-03-02T02:15:06.657Z,62410.60
2023-03-02T02:16:10.577Z,62416.56
2023-03-02T02:17:15.932Z,62420.91
2023-03-02T02:18:18.627Z,62419.28
2023-03-02T02:19:31.088Z,62426.74
2023-03-02T02:20:37.066Z,62426.74
2023-03-02T02:21:39.469Z,62427.81
2023-03-02T02:22:45.753Z,62415.07
2023-03-02T02:24:06.513Z,62419.67
2023-03-02T02:25:19.281Z,62424.55
2023-03-02T02:26:40.786Z,62419.81
2023-03-02T02:27:43.980Z,62423.48
2023-03-02T02:28:59.049Z,62418.72
2023-03-02T02:30:03.917Z,62422.66
2023-03-02T02:31:23.121Z,62428.37
2023-03-02T02:32:29.054Z,62423.61
2023-03-02T02:33:32.653Z,62427.81
2023-03-02T02:34:44.065Z,62425.65
2023-03-02T02:35:47.208Z,62419.40
2023-03-02T02:36:53.201Z,62431.07
2023-03-02T02:37:58.911Z,62412.89
2023-03-02T02:39:05.131Z,62422.80
2023-03-02T02:40:14.284Z,62419.67
2023-03-02T02:41:25.999Z,62420.91
2023-03-02T02:42:31.701Z,62412.89
2023-03-02T02:43:34.017Z,62420.23
2023-03-02T02:44:36.313Z,62422.93
2023-03-02T02:45:39.255Z,62426.74
2023-03-02T02:46:42.488Z,62419.81
2023-03-02T02:47:44.864Z,62420.91
2023-03-02T02:48:46.756Z,62417.65
2023-03-02T02:49:52.627Z,62424.02
2023-03-02T02:50:54.801Z,62419.40
2023-03-02T02:51:58.424Z,62421.59
2023-03-02T02:53:05.019Z,62424.55
2023-03-02T02:54:11.183Z,62400.15
2023-03-02T02:55:16.883Z,62415.88
2023-03-02T02:56:19.681Z,62405.30
2023-03-02T02:57:24.370Z,62411.67
2023-03-02T02:58:30.044Z,62417.50
2023-03-02T02:59:38.787Z,62415.88
2023-03-02T03:00:42.722Z,62414.52
2023-03-02T03:01:47.228Z,62415.46
2023-03-02T03:02:53.221Z,62413.30
2023-03-02T03:05:28.426Z,62423.21
2023-03-02T03:06:34.290Z,62419.81
2023-03-02T03:07:36.405Z,62413.18
2023-03-02T03:08:42.071Z,62418.04
2023-03-02T03:09:48.575Z,62417.09
2023-03-02T03:10:50.999Z,62403.41
2023-03-02T03:11:56.726Z,62405.30
2023-03-02T03:12:58.924Z,62410.46
2023-03-02T03:14:06.307Z,62402.99
2023-03-02T03:15:10.618Z,62407.73
2023-03-02T03:16:15.188Z,62399.61
2023-03-02T03:17:17.885Z,62397.16
2023-03-02T03:18:22.965Z,62404.09
2023-03-02T03:19:28.550Z,62411.55
2023-03-02T03:20:30.997Z,62409.36
2023-03-02T03:21:33.315Z,62412.62
2023-03-02T03:22:38.716Z,62416.82
2023-03-02T03:23:40.733Z,62414.25
2023-03-02T03:24:44.570Z,62408.97
2023-03-02T03:25:46.638Z,62413.18
2023-03-02T03:26:49.290Z,62410.99
2023-03-02T03:27:51.205Z,62412.08
2023-03-02T03:28:53.608Z,62409.36
2023-03-02T03:29:55.555Z,62408.83
2023-03-02T03:30:59.246Z,62406.39
2023-03-02T03:32:03.119Z,62406.39
2023-03-02T03:33:05.473Z,62409.51
2023-03-02T03:34:08.119Z,62407.20
2023-03-02T03:35:10.874Z,62407.20
2023-03-02T03:36:13.249Z,62408.02
2023-03-02T03:37:19.242Z,62403.67
2023-03-02T03:38:22.257Z,62407.46
2023-03-02T03:39:24.252Z,62410.46
2023-03-02T03:40:26.448Z,62405.84
2023-03-02T03:41:28.361Z,62411.13
2023-03-02T03:42:31.434Z,62410.46
2023-03-02T03:43:33.990Z,62412.62
2023-03-02T03:44:36.077Z,62404.89
2023-03-02T03:45:39.216Z,62411.55
2023-03-02T03:46:42.597Z,62406.25
2023-03-02T03:47:44.600Z,62403.67
2023-03-02T03:48:46.852Z,62405.71
2023-03-02T03:49:49.161Z,62399.20
2023-03-02T03:50:52.623Z,62413.57
2023-03-02T03:51:55.073Z,62411.67
2023-03-02T03:52:57.427Z,62407.88
2023-03-02T03:53:59.301Z,62404.48
2023-03-02T03:55:02.497Z,62406.25
2023-03-02T03:56:05.462Z,62411.55
2023-03-02T03:57:07.387Z,62406.11
2023-03-02T03:58:09.943Z,62410.99
2023-03-02T03:59:15.617Z,62408.29
2023-03-02T04:00:19.199Z,62405.30
2023-03-02T04:01:21.496Z,62408.68
2023-03-02T04:02:24.938Z,62406.93
2023-03-02T04:03:27.464Z,62403.41
2023-03-02T04:04:32.669Z,62400.83
2023-03-02T04:05:35.006Z,62410.87
2023-03-02T04:06:37.413Z,62405.03
2023-03-02T04:07:40.351Z,62410.46
2023-03-02T04:08:42.237Z,62405.16
2023-03-02T04:09:44.249Z,62403.94
2023-03-02T04:10:46.653Z,62408.41
2023-03-02T04:11:50.952Z,62412.62
2023-03-02T04:12:53.143Z,62412.62
2023-03-02T04:13:55.346Z,62413.18
2023-03-02T04:14:58.320Z,62409.51
2023-03-02T04:16:00.701Z,62410.04
2023-03-02T04:17:03.970Z,62413.30
2023-03-02T04:18:05.886Z,62413.30
2023-03-02T04:19:07.993Z,62415.88
2023-03-02T04:20:13.305Z,62414.80
2023-03-02T04:21:15.435Z,62416.97
2023-03-02T04:22:17.702Z,62415.34
2023-03-02T04:23:19.592Z,62412.23
2023-03-02T04:24:22.305Z,62398.52
2023-03-02T04:25:27.289Z,62413.18
2023-03-02T04:26:31.456Z,62416.56
2023-03-02T04:27:33.697Z,62418.04
2023-03-02T04:28:36.033Z,62418.04
2023-03-02T04:29:38.770Z,62419.13
2023-03-02T04:30:42.279Z,62416.97
2023-03-02T04:31:44.360Z,62417.50
2023-03-02T04:32:46.819Z,62419.13
2023-03-02T04:33:49.032Z,62415.88
2023-03-02T04:34:50.964Z,62414.25
2023-03-02T04:35:52.904Z,62414.25
2023-03-02T04:36:55.843Z,62415.88
2023-03-02T04:37:57.748Z,62416.82
2023-03-02T04:39:01.821Z,62410.72
2023-03-02T04:40:05.006Z,62417.50
2023-03-02T04:41:07.029Z,62405.71
2023-03-02T04:42:09.060Z,62413.57
2023-03-02T04:43:11.541Z,62406.11
2023-03-02T04:44:15.022Z,62415.88
2023-03-02T04:45:18.246Z,62415.88
2023-03-02T04:46:24.123Z,62416.56
2023-03-02T04:47:26.428Z,62417.50
2023-03-02T04:48:29.322Z,62412.35
2023-03-02T04:49:32.064Z,62419.13
2023-03-02T04:50:34.487Z,62418.60
2023-03-02T04:51:39.984Z,62417.50
2023-03-02T04:52:44.261Z,62416.56
2023-03-02T04:53:46.880Z,62410.72
2023-03-02T04:54:49.512Z,62412.89
2023-03-02T04:55:52.197Z,62412.08
2023-03-02T04:56:55.259Z,62414.80
2023-03-02T04:57:57.372Z,62411.13
2023-03-02T04:59:01.307Z,62414.80
2023-03-02T05:00:05.031Z,62418.04
2023-03-02T05:01:08.626Z,62416.56
2023-03-02T05:02:12.330Z,62414.52
2023-03-02T05:03:14.312Z,62427.28
2023-03-02T05:04:17.749Z,62422.54
2023-03-02T05:05:24.143Z,62410.46
2023-03-02T05:06:26.365Z,62412.76
2023-03-02T05:07:28.388Z,62415.88
2023-03-02T05:08:31.502Z,62418.18
2023-03-02T05:09:33.659Z,62417.65
2023-03-02T05:10:36.172Z,62417.65
2023-03-02T05:11:38.778Z,62413.71
2023-03-02T05:12:41.275Z,62413.71
2023-03-02T05:13:43.154Z,62416.02
2023-03-02T05:14:45.857Z,62419.67
2023-03-02T05:15:47.887Z,62415.61
2023-03-02T05:16:50.592Z,62419.55
2023-03-02T05:17:52.819Z,62416.56
2023-03-02T05:18:55.687Z,62417.65
2023-03-02T05:19:57.573Z,62423.07
2023-03-02T05:20:59.928Z,62425.79
2023-03-02T05:22:01.971Z,62419.40
2023-03-02T05:23:06.927Z,62427.96
2023-03-02T05:24:10.070Z,62421.86
2023-03-02T05:25:12.454Z,62419.40
2023-03-02T05:26:15.699Z,62424.82
2023-03-02T05:27:17.736Z,62428.91
2023-03-02T05:28:21.873Z,62433.79
2023-03-02T05:29:23.777Z,62422.80
2023-03-02T05:30:26.392Z,62428.64
2023-03-02T05:31:35.375Z,62433.79
2023-03-02T05:32:38.223Z,62429.44
2023-03-02T05:33:40.700Z,62427.54
2023-03-02T05:34:42.599Z,62436.23
2023-03-02T05:35:46.041Z,62431.34
2023-03-02T05:36:48.313Z,62441.52
2023-03-02T05:37:50.246Z,62445.32
2023-03-02T05:38:52.329Z,62451.69
2023-03-02T05:39:54.208Z,62448.43
2023-03-02T05:40:56.894Z,62449.25
2023-03-02T05:41:58.873Z,62455.09
2023-03-02T05:43:01.365Z,62454.14
2023-03-02T05:44:04.977Z,62443.28
2023-03-02T05:45:10.753Z,62451.30
2023-03-02T05:46:13.526Z,62457.14
2023-03-02T05:47:15.714Z,62461.47
2023-03-02T05:48:17.921Z,62461.05
2023-03-02T05:49:19.789Z,62456.16
2023-03-02T05:50:22.479Z,62463.77
2023-03-02T05:51:24.472Z,62467.45
2023-03-02T05:52:26.376Z,62465.55
2023-03-02T05:53:29.744Z,62457.94
2023-03-02T05:54:31.681Z,62472.32
2023-03-02T05:55:33.641Z,62477.20
2023-03-02T05:56:35.924Z,62478.30
2023-03-02T05:57:38.518Z,62457.14
2023-03-02T05:58:40.426Z,62470.41
2023-03-02T05:59:42.638Z,62481.70
2023-03-02T06:00:45.835Z,62484.54
2023-03-02T06:01:47.782Z,62488.75
2023-03-02T06:02:50.047Z,62488.34
2023-03-02T06:03:52.834Z,62492.96
2023-03-02T06:04:54.718Z,62491.46
2023-03-02T06:05:57.247Z,62497.98
2023-03-02T06:06:59.447Z,62497.44
2023-03-02T06:08:02.595Z,62501.65
2023-03-02T06:09:04.480Z,62505.59
2023-03-02T06:10:10.015Z,62509.80
2023-03-02T06:11:12.379Z,62511.02
2023-03-02T06:12:14.658Z,62514.67
2023-03-02T06:13:17.084Z,62514.28
2023-03-02T06:14:18.973Z,62513.18
2023-03-02T06:15:21.111Z,62513.32
2023-03-02T06:16:23.190Z,62517.54
2023-03-02T06:17:26.118Z,62520.80
2023-03-02T06:18:28.176Z,62526.64
2023-03-02T06:19:30.033Z,62514.81
2023-03-02T06:20:32.048Z,62523.38
2023-03-02T06:21:33.972Z,62529.34
2023-03-02T06:22:40.805Z,62525.81
2023-03-02T06:23:42.744Z,62524.71
2023-03-02T06:24:44.746Z,62538.17
2023-03-02T06:25:46.748Z,62546.18
2023-03-02T06:26:48.838Z,62540.48
2023-03-02T06:27:51.426Z,62554.60
2023-03-02T06:28:54.087Z,62572.93
2023-03-02T06:29:56.179Z,62575.12
2023-03-02T06:30:58.156Z,62587.75
2023-03-02T06:32:00.514Z,62584.89
2023-03-02T06:33:02.816Z,62599.57
2023-03-02T06:34:04.793Z,62599.71
2023-03-02T06:35:09.368Z,62608.41
2023-03-02T06:36:12.100Z,62614.93
2023-03-02T06:37:14.135Z,62639.25
2023-03-02T06:38:17.427Z,62652.98
2023-03-02T06:39:19.404Z,62665.90
2023-03-02T06:40:22.501Z,62638.71
2023-03-02T06:41:25.411Z,62664.68
2023-03-02T06:42:27.706Z,62666.04
2023-03-02T06:43:29.690Z,62691.88
2023-03-02T06:44:32.895Z,62702.62
2023-03-02T06:45:35.100Z,62717.59
2023-03-02T06:46:39.141Z,62701.40
2023-03-02T06:47:41.206Z,62720.84
2023-03-02T06:48:43.871Z,62730.64
2023-03-02T06:49:46.347Z,62745.46
2023-03-02T06:50:48.432Z,62755.00
2023-03-02T06:51:50.379Z,62755.26
2023-03-02T06:52:52.285Z,62757.45
2023-03-02T06:53:54.767Z,62756.36
2023-03-02T06:54:57.058Z,62753.51
2023-03-02T06:55:59.135Z,62732.83
2023-03-02T06:57:02.159Z,62755.14
2023-03-02T06:58:04.409Z,62739.90
2023-03-02T06:59:06.286Z,62768.75
2023-03-02T07:00:11.069Z,62779.77
2023-03-02T07:01:13.295Z,62743.71
2023-03-02T07:02:15.257Z,62765.88
2023-03-02T07:03:17.304Z,62778.14
2023-03-02T07:04:19.346Z,62785.75
2023-03-02T07:05:22.993Z,62784.67
2023-03-02T07:06:25.159Z,62787.66
2023-03-02T07:07:27.264Z,62803.17
2023-03-02T07:08:29.655Z,62811.90
2023-03-02T07:09:33.254Z,62827.15
2023-03-02T07:10:36.960Z,62838.04
2023-03-02T07:11:39.465Z,62820.47
2023-03-02T07:12:43.177Z,62839.67
2023-03-02T07:13:45.148Z,62852.62
2023-03-02T07:14:47.035Z,62814.19
2023-03-02T07:15:49.031Z,62839.54
2023-03-02T07:16:52.454Z,62843.90
2023-03-02T07:17:54.735Z,62782.48
2023-03-02T07:18:56.728Z,62839.95
2023-03-02T07:19:58.651Z,62841.73
2023-03-02T07:21:01.214Z,62851.94
2023-03-02T07:22:03.626Z,62856.42
2023-03-02T07:23:06.221Z,62806.44
2023-03-02T07:24:08.675Z,62823.61
2023-03-02T07:25:11.775Z,62837.50
2023-03-02T07:26:14.174Z,62843.06
2023-03-02T07:27:17.078Z,62814.07
2023-03-02T07:28:21.168Z,62830.96
2023-03-02T07:29:23.132Z,62839.54
2023-03-02T07:30:25.194Z,62853.29
2023-03-02T07:31:28.298Z,62861.33
2023-03-02T07:32:32.283Z,62847.17
2023-03-02T07:33:35.843Z,62858.73
2023-03-02T07:34:41.178Z,62869.37
2023-03-02T07:35:43.542Z,62893.06
2023-03-02T07:36:45.653Z,62899.74
2023-03-02T07:37:47.533Z,62902.34
2023-03-02T07:38:50.150Z,62905.90
2023-03-02T07:39:52.015Z,62889.25
2023-03-02T07:40:54.114Z,62877.27
2023-03-02T07:42:00.827Z,62884.63
2023-03-02T07:43:02.753Z,62877.27
2023-03-02T07:44:04.647Z,62891.43
2023-03-02T07:45:07.120Z,62895.80
2023-03-02T07:46:09.152Z,62872.89
2023-03-02T07:47:11.274Z,62865.82
2023-03-02T07:48:13.291Z,62866.37
2023-03-02T07:49:15.164Z,62878.36
2023-03-02T07:50:18.671Z,62883.55
2023-03-02T07:51:20.843Z,62889.25
2023-03-02T07:52:23.077Z,62903.42
2023-03-02T07:53:25.414Z,62922.80
2023-03-02T07:54:27.594Z,62944.19
2023-03-02T07:55:29.784Z,62918.68
2023-03-02T07:56:33.315Z,62933.95
2023-03-02T07:57:35.582Z,62942.80
2023-03-02T07:58:38.093Z,62919.78
2023-03-02T07:59:40.062Z,62940.49
2023-03-02T08:00:42.802Z,62954.66
2023-03-02T08:01:44.808Z,62970.36
2023-03-02T08:02:47.244Z,62968.30
2023-03-02T08:03:50.393Z,62974.30
2023-03-02T08:04:52.391Z,62973.77
2023-03-02T08:05:55.015Z,62994.36
2023-03-02T08:06:56.990Z,62996.67
2023-03-02T08:07:58.859Z,62995.45
2023-03-02T08:09:04.346Z,62961.21
2023-03-02T08:10:08.508Z,62978.68
2023-03-02T08:11:16.463Z,62957.40
2023-03-02T08:12:18.399Z,62948.96
2023-03-02T08:13:20.322Z,62924.15
2023-03-02T08:14:22.382Z,62936.96
2023-03-02T08:15:24.992Z,62955.90
2023-03-02T08:16:29.291Z,62976.37
2023-03-02T08:17:31.880Z,62973.21
2023-03-02T08:18:34.751Z,62966.00
2023-03-02T08:19:37.386Z,62977.29
2023-03-02T08:20:39.359Z,62953.59
2023-03-02T08:21:41.388Z,62969.93
2023-03-02T08:22:44.310Z,62968.86
2023-03-02T08:23:46.668Z,62964.91
2023-03-02T08:24:49.698Z,62968.86
2023-03-02T08:25:54.078Z,62968.30
2023-03-02T08:27:01.552Z,62971.03
2023-03-02T08:28:04.402Z,62955.76
2023-03-02T08:29:07.261Z,62914.87
2023-03-02T08:30:12.542Z,62911.06
2023-03-02T08:31:15.097Z,62934.37
2023-03-02T08:32:17.560Z,62930.13
2023-03-02T08:33:19.562Z,62924.15
2023-03-02T08:34:21.411Z,62958.78
2023-03-02T08:35:23.397Z,62956.30
2023-03-02T08:36:25.806Z,62944.02
2023-03-02T08:37:28.077Z,62951.41
2023-03-02T08:38:31.741Z,62950.31
2023-03-02T08:39:33.861Z,62980.18
2023-03-02T08:40:35.861Z,62967.76
2023-03-02T08:41:38.292Z,62973.21
2023-03-02T08:42:42.344Z,62943.34
2023-03-02T08:43:46.852Z,62943.09
2023-03-02T08:44:48.825Z,62950.99
2023-03-02T08:45:52.895Z,62959.86
2023-03-02T08:46:55.396Z,62969.93
2023-03-02T08:47:57.396Z,62976.48
2023-03-02T08:48:59.385Z,62980.86
2023-03-02T08:50:01.587Z,62986.30
2023-03-02T08:51:07.329Z,62991.75
2023-03-02T08:52:09.307Z,62971.57
2023-03-02T08:53:11.355Z,62967.22
2023-03-02T08:54:13.247Z,62972.13
2023-03-02T08:55:16.453Z,62974.98
2023-03-02T08:56:25.997Z,62979.08
2023-03-02T08:57:28.060Z,62982.61
2023-03-02T08:58:29.948Z,62990.68
2023-03-02T08:59:31.870Z,62961.63
2023-03-02T09:00:34.043Z,62957.26
2023-03-02T09:01:37.710Z,62974.30
2023-03-02T09:02:40.451Z,62958.61
2023-03-02T09:03:42.574Z,62981.93
2023-03-02T09:04:46.209Z,62978.68
2023-03-02T09:05:48.350Z,62983.03
2023-03-02T09:06:50.410Z,62987.40
2023-03-02T09:07:53.078Z,62999.15
2023-03-02T09:08:56.457Z,62974.84
2023-03-02T09:09:58.389Z,62955.34
2023-03-02T09:11:01.006Z,62966.68
2023-03-02T09:12:03.916Z,62982.78
2023-03-02T09:13:08.586Z,62979.76
2023-03-02T09:14:12.799Z,62979.33
2023-03-02T09:15:16.841Z,62986.84
2023-03-02T09:16:19.094Z,62998.30
2023-03-02T09:17:21.016Z,63000.48
2023-03-02T09:18:23.052Z,62984.67
2023-03-02T09:19:25.903Z,62997.63
2023-03-02T09:20:28.097Z,63008.13
2023-03-02T09:21:30.097Z,63006.36
2023-03-02T09:22:32.176Z,63013.72
2023-03-02T09:23:34.374Z,62993.28
2023-03-02T09:24:36.556Z,62996.80
2023-03-02T09:25:38.423Z,63007.59
2023-03-02T09:26:42.181Z,63001.16
2023-03-02T09:27:46.648Z,63020.67
2023-03-02T09:28:48.953Z,63015.36
2023-03-02T09:29:51.002Z,63002.68
2023-03-02T09:30:56.836Z,63000.48
2023-03-02T09:31:58.858Z,63019.04
2023-03-02T09:33:00.985Z,63020.67
2023-03-02T09:34:04.551Z,63018.25
2023-03-02T09:35:07.504Z,63018.63
2023-03-02T09:36:12.354Z,63016.05
2023-03-02T09:37:15.284Z,63014.80
2023-03-02T09:38:18.457Z,63019.59
2023-03-02T09:39:21.412Z,63012.08
2023-03-02T09:40:27.021Z,63010.31
2023-03-02T09:41:49.569Z,63012.48
2023-03-02T09:43:01.358Z,63015.51
2023-03-02T09:44:33.328Z,63010.98
2023-03-02T09:46:00.124Z,63009.23
2023-03-02T09:47:35.223Z,62998.30
2023-03-02T09:48:40.080Z,63005.53
2023-03-02T09:49:50.425Z,63010.31
2023-03-02T09:51:05.340Z,63011.41
2023-03-02T09:52:11.058Z,63023.41
2023-03-02T09:53:23.307Z,63023.41
2023-03-02T09:54:25.795Z,63032.81
2023-03-02T09:55:31.450Z,63046.88
2023-03-02T09:57:48.046Z,63045.49
2023-03-02T10:00:20.410Z,63032.14
2023-03-02T10:02:45.832Z,63028.44
2023-03-02T10:03:51.807Z,63033.23
2023-03-02T10:04:57.411Z,63032.14
2023-03-02T10:06:00.019Z,63037.59
2023-03-02T10:07:14.834Z,63044.68
2023-03-02T10:08:23.112Z,63053.01
2023-03-02T10:09:25.672Z,63049.60
2023-03-02T10:10:45.738Z,63049.60
2023-03-02T10:13:32.389Z,63047.13
2023-03-02T10:14:41.025Z,63038.02
2023-03-02T10:15:56.087Z,63038.02
2023-03-02T10:17:11.102Z,63051.23
2023-03-02T10:18:16.802Z,63058.89
2023-03-02T10:20:52.850Z,63050.41
2023-03-02T10:21:59.000Z,63060.52
2023-03-02T10:24:36.075Z,63071.01
2023-03-02T10:25:45.480Z,63067.62
2023-03-02T10:27:03.239Z,63060.77
2023-03-02T10:28:21.348Z,63071.43
2023-03-02T10:29:44.836Z,63087.82
2023-03-02T10:32:11.004Z,63107.47
2023-03-02T10:33:16.499Z,63101.18
2023-03-02T10:34:21.174Z,63112.52
2023-03-02T10:35:25.312Z,63123.30
2023-03-02T10:36:30.995Z,63112.52
2023-03-02T10:37:32.998Z,63104.19
2023-03-02T10:38:35.271Z,63110.21
2023-03-02T10:39:37.256Z,63104.19
2023-03-02T10:40:43.046Z,63122.76
2023-03-02T10:41:52.171Z,63116.20
2023-03-02T10:42:56.320Z,63108.57
2023-03-02T10:44:14.354Z,63126.84
2023-03-02T10:45:28.793Z,63133.70
2023-03-02T10:46:45.465Z,63106.39
2023-03-02T10:47:48.024Z,63082.61
2023-03-02T10:48:57.143Z,63106.93
2023-03-02T10:49:59.336Z,63124.40
2023-03-02T10:51:01.538Z,63127.38
2023-03-02T10:52:12.728Z,63135.34
2023-03-02T10:53:18.386Z,63148.34
2023-03-02T10:54:20.437Z,63152.95
2023-03-02T10:55:23.478Z,63135.45
2023-03-02T10:56:26.100Z,63119.05
2023-03-02T10:57:41.465Z,63118.94
2023-03-02T10:58:44.332Z,63129.99
2023-03-02T10:59:47.142Z,63142.03
2023-03-02T11:01:07.530Z,63131.63
2023-03-02T11:02:19.561Z,63144.34
2023-03-02T11:03:23.454Z,63158.00
2023-03-02T11:04:25.892Z,63172.08
2023-03-02T11:05:34.245Z,63183.43
2023-03-02T11:06:38.572Z,63179.86
2023-03-02T11:07:44.248Z,63185.61
2023-03-02T11:08:48.046Z,63185.07
2023-03-02T11:10:01.580Z,63183.00
2023-03-02T11:11:04.372Z,63158.96
2023-03-02T11:13:28.390Z,63181.90
2023-03-02T11:14:30.354Z,63178.51
2023-03-02T11:15:36.024Z,63168.37
2023-03-02T11:16:38.211Z,63183.97
2023-03-02T11:17:42.419Z,63186.15
2023-03-02T11:18:53.670Z,63187.25
2023-03-02T11:19:56.022Z,63197.09
2023-03-02T11:21:20.971Z,63183.54
2023-03-02T11:24:09.289Z,63186.82
2023-03-02T11:25:14.990Z,63167.70
2023-03-02T11:26:26.460Z,63162.11
2023-03-02T11:27:30.699Z,63173.59
2023-03-02T11:28:39.219Z,63164.42
2023-03-02T11:29:54.033Z,63159.39
2023-03-02T11:30:58.543Z,63173.05
2023-03-02T11:32:07.452Z,63172.62
2023-03-02T11:33:25.147Z,63193.14
2023-03-02T11:34:36.927Z,63191.20
2023-03-02T11:35:49.116Z,63176.33
2023-03-02T11:37:01.537Z,63187.92
2023-03-02T11:38:10.260Z,63200.48
2023-03-02T11:39:16.101Z,63164.85
2023-03-02T11:40:42.700Z,63164.85
2023-03-02T11:41:45.095Z,63184.64
2023-03-02T11:42:48.439Z,63208.55
2023-03-02T11:43:53.420Z,63223.86
2023-03-02T11:44:57.591Z,63220.04
2023-03-02T11:46:05.052Z,63220.28
2023-03-02T11:47:10.175Z,63184.40
2023-03-02T11:48:21.658Z,63155.01
2023-03-02T11:49:25.253Z,63162.79
2023-03-02T11:50:27.981Z,63184.51
2023-03-02T11:51:47.085Z,63203.66
2023-03-02T11:52:58.780Z,63205.84
2023-03-02T11:54:07.552Z,63214.58
2023-03-02T11:55:22.296Z,63219.50
2023-03-02T11:56:26.135Z,63216.22
2023-03-02T11:57:34.839Z,63222.22
2023-03-02T11:58:38.478Z,63225.09
2023-03-02T11:59:41.563Z,63218.10
2023-03-02T12:00:44.497Z,63226.18
2023-03-02T12:01:50.556Z,63212.64
2023-03-02T12:03:01.587Z,63206.91
2023-03-02T12:04:27.432Z,63169.77
2023-03-02T12:05:36.019Z,63185.07
2023-03-02T12:06:42.239Z,63192.17
2023-03-02T12:07:46.666Z,63195.99
2023-03-02T12:08:52.006Z,63203.23
2023-03-02T12:10:06.267Z,63210.87
2023-03-02T12:11:17.723Z,63203.66
2023-03-02T12:12:27.812Z,63197.09
2023-03-02T12:13:36.645Z,63183.54
2023-03-02T12:14:41.175Z,63181.79
2023-03-02T12:15:49.071Z,63179.05
2023-03-02T12:16:55.083Z,63179.05
2023-03-02T12:17:57.998Z,63179.05
2023-03-02T12:19:16.318Z,63186.15
2023-03-02T12:20:27.326Z,63195.99
2023-03-02T12:21:33.006Z,63201.70
2023-03-02T12:22:36.182Z,63202.02
2023-03-02T12:23:45.517Z,63202.80
2023-03-02T12:24:51.237Z,63198.73
2023-03-02T12:26:06.258Z,63198.84
2023-03-02T12:27:21.379Z,63202.02
2023-03-02T12:28:32.988Z,63204.73
2023-03-02T12:29:40.881Z,63210.20
2023-03-02T12:30:43.132Z,63212.94
2023-03-02T12:31:47.443Z,63209.90
2023-03-02T12:33:20.568Z,63213.61
2023-03-02T12:34:41.187Z,63222.89
2023-03-02T12:35:45.024Z,63218.96
2023-03-02T12:36:48.695Z,63222.35
2023-03-02T12:37:54.375Z,63215.92
2023-03-02T12:40:20.434Z,63230.56
2023-03-02T12:41:43.829Z,63229.88
2023-03-02T12:43:01.326Z,63233.59
2023-03-02T12:44:22.527Z,63215.68
2023-03-02T12:45:31.377Z,63215.49
2023-03-02T12:46:37.162Z,63223.86
2023-03-02T12:47:43.302Z,63231.95
2023-03-02T12:49:19.405Z,63223.32
2023-03-02T12:50:25.256Z,63220.84
2023-03-02T12:51:31.277Z,63230.98
2023-03-02T12:52:35.790Z,63225.50
2023-03-02T12:53:37.946Z,63218.53
2023-03-02T12:54:40.625Z,63221.68